Time;durP1;ratioP1;P1;durP2;ratioP2;P2;SDS_P1;SDS_P2;PMS_P1;PMS_P2;Temp;Humidity;BMP_temperature;BMP_pressure;BME280_temperature;BME280_humidity;BME280_pressure;Samples;Min_cycle;Max_cycle;Signal;HPM_P1;HPM_P2
2022/06/22 00:00:03;;;;;;;;;;;;;;;;;;5109839;28;902;-65
2022/06/22 00:02:31;;;;;;;;;;;;;;;;;;5111245;28;934;-65
2022/06/22 00:04:59;;;;;;;;;;;;;;;;;;5111012;28;1018;-65
2022/06/22 00:07:37;;;;;;;;;;;;;;;;;;5110769;28;927;-65
2022/06/22 00:10:06;;;;;;;;;;;;;;;;;;5110826;28;844;-65
2022/06/22 00:12:32;;;;;;;;;;;;;;;;;;5110618;28;769;-65
2022/06/22 00:14:58;;;;;;;;;;;;;;;;;;5110706;28;1924;-65
2022/06/22 00:17:24;;;;;;;;;;;;;;;;;;5110595;28;852;-65
2022/06/22 00:19:49;;;;;;;;;;;;;;;;;;5110205;28;899;-65
2022/06/22 00:22:19;;;;;;;;;;;;;;;;;;5092282;28;1296;-65
2022/06/22 00:24:45;;;;;;;;;;;;;;;;;;5110476;28;855;-65
2022/06/22 00:27:30;;;;;;;;;;;;;;;;;;5110432;28;1025;-65
2022/06/22 00:30:11;;;;;;;;;;;;;;;;;;5110194;28;987;-65
2022/06/22 00:32:36;;;;;;;;;;;;;;;;;;5110356;28;1104;-65
2022/06/22 00:35:21;;;;;;;;;;;;;;;;;;5108446;28;1961;-64
2022/06/22 00:37:46;;;;;;;;;;;;;;;;;;5109992;28;971;-65
2022/06/22 00:40:15;;;;;;;;;;;;;;;;;;5112639;28;895;-65
2022/06/22 00:42:43;;;;;;;;;;;;;;;;;;5114826;28;757;-65
2022/06/22 00:45:13;;;;;;;;;;;;;;;;;;5112849;28;1234;-64
2022/06/22 00:47:43;;;;;;;;;;;;;;;;;;5112881;28;1276;-64
2022/06/22 00:50:26;;;;;;;;;;;;;;;;;;5113805;28;1029;-65
2022/06/22 00:53:00;;;;;;;;;;;;;;;;;;5113491;28;903;-65
2022/06/22 00:55:30;;;;;;;;;;;;;;;;;;5113870;28;1962;-64
2022/06/22 00:58:04;;;;;;;;;;;;;;;;;;5113594;28;879;-64
2022/06/22 01:00:32;;;;;;;;;;;;;;;;;;5113595;28;769;-65
2022/06/22 01:03:05;;;;;;;;;;;;;;;;;;5113528;28;931;-64
2022/06/22 01:05:40;;;;;;;;;;;;;;;;;;5112285;28;1230;-64
2022/06/22 01:08:05;;;;;;;;;;;;;;;;;;5113140;28;899;-64
2022/06/22 01:10:37;;;;;;;;;;;;;;;;;;5112043;28;1351;-65
2022/06/22 01:13:08;;;;;;;;;;;;;;;;;;5113647;28;903;-65
2022/06/22 01:15:40;;;;;;;;;;;;;;;;;;5113517;28;1959;-64
2022/06/22 01:18:09;;;;;;;;;;;;;;;;;;5113330;28;1043;-64
2022/06/22 01:20:53;;;;;;;;;;;;;;;;;;5113508;28;1154;-64
2022/06/22 01:23:41;;;;;;;;;;;;;;;;;;5113630;28;904;-65
2022/06/22 01:26:06;;;;;;;;;;;;;;;;;;5104403;28;1470;-64
2022/06/22 01:28:32;;;;;;;;;;;;;;;;;;5113510;28;1072;-64
2022/06/22 01:31:03;;;;;;;;;;;;;;;;;;5112147;28;1198;-65
2022/06/22 01:33:34;;;;;;;;;;;;;;;;;;5112528;28;1182;-64
2022/06/22 01:36:07;;;;;;;;;;;;;;;;;;5112126;28;1929;-65
2022/06/22 01:38:35;;;;;;;;;;;;;;;;;;5113446;28;793;-64
2022/06/22 01:41:12;;;;;;;;;;;;;;;;;;5113717;28;812;-64
2022/06/22 01:43:51;;;;;;;;;;;;;;;;;;5113700;28;990;-64
2022/06/22 01:46:20;;;;;;;;;;;;;;;;;;5112266;28;1394;-64
2022/06/22 01:48:53;;;;;;;;;;;;;;;;;;5111860;28;1305;-64
2022/06/22 01:51:32;;;;;;;;;;;;;;;;;;5113266;28;899;-64
2022/06/22 01:54:05;;;;;;;;;;;;;;;;;;5111310;28;1901;-65
2022/06/22 01:56:44;;;;;;;;;;;;;;;;;;5112973;28;880;-64
2022/06/22 01:59:28;;;;;;;;;;;;;;;;;;5111612;28;939;-64
2022/06/22 02:02:00;;;;;;;;;;;;;;;;;;5112585;28;773;-65
2022/06/22 02:04:25;;;;;;;;;;;;;;;;;;5112461;28;859;-64
2022/06/22 02:09:58;;;;;;;;;;;;;;;;;;5112637;28;620;-64
2022/06/22 02:12:28;;;;;;;;;;;;;;;;;;5110504;28;1456;-63
2022/06/22 02:15:00;;;;;;;;;;;;;;;;;;5111775;28;1917;-64
2022/06/22 02:17:28;;;;;;;;;;;;;;;;;;5111841;28;896;-64
2022/06/22 02:20:12;;;;;;;;;;;;;;;;;;5110254;28;912;-64
2022/06/22 02:22:38;;;;;;;;;;;;;;;;;;5111927;28;757;-65
2022/06/22 02:25:04;;;;;;;;;;;;;;;;;;5111421;28;852;-65
2022/06/22 02:27:29;;;;;;;;;;;;;;;;;;5110692;28;880;-65
2022/06/22 02:29:58;;;;;;;;;;;;;;;;;;5111587;28;876;-64
2022/06/22 02:32:29;;;;;;;;;;;;;;;;;;5111213;28;1168;-64
2022/06/22 02:34:55;;;;;;;;;;;;;;;;;;5111833;28;2338;-64
2022/06/22 02:37:23;;;;;;;;;;;;;;;;;;5110372;28;836;-64
2022/06/22 02:39:52;;;;;;;;;;;;;;;;;;5111637;28;1006;-65
2022/06/22 02:45:03;;;;;;;;;;;;;;;;;;5111311;28;1090;-65
2022/06/22 02:47:31;;;;;;;;;;;;;;;;;;5111499;28;880;-64
2022/06/22 02:50:26;;;;;;;;;;;;;;;;;;5109635;28;1713;-64
2022/06/22 02:52:54;;;;;;;;;;;;;;;;;;5072796;27;1029;-64
2022/06/22 02:55:22;;;;;;;;;;;;;;;;;;5110109;28;1913;-64
2022/06/22 02:57:55;;;;;;;;;;;;;;;;;;5111301;27;758;-65
2022/06/22 03:00:25;;;;;;;;;;;;;;;;;;5111760;28;923;-65
2022/06/22 03:02:53;;;;;;;;;;;;;;;;;;5110549;28;832;-65
2022/06/22 03:05:18;;;;;;;;;;;;;;;;;;5111561;28;954;-65
2022/06/22 03:07:46;;;;;;;;;;;;;;;;;;5111290;28;785;-65
2022/06/22 03:10:23;;;;;;;;;;;;;;;;;;5109681;28;1694;-64
2022/06/22 03:12:49;;;;;;;;;;;;;;;;;;5110965;28;934;-65
2022/06/22 03:15:18;;;;;;;;;;;;;;;;;;5109977;28;1902;-65
2022/06/22 03:17:43;;;;;;;;;;;;;;;;;;5111107;28;844;-65
2022/06/22 03:20:14;;;;;;;;;;;;;;;;;;5110573;28;911;-65
2022/06/22 03:22:43;;;;;;;;;;;;;;;;;;5111626;28;761;-65
2022/06/22 03:25:27;;;;;;;;;;;;;;;;;;5110302;28;1231;-65
2022/06/22 03:27:54;;;;;;;;;;;;;;;;;;5111168;28;861;-65
2022/06/22 03:30:22;;;;;;;;;;;;;;;;;;5110456;28;1421;-66
2022/06/22 03:32:54;;;;;;;;;;;;;;;;;;5110973;28;1132;-65
2022/06/22 03:35:29;;;;;;;;;;;;;;;;;;5111577;28;1937;-65
2022/06/22 03:38:03;;;;;;;;;;;;;;;;;;5111036;28;1050;-65
2022/06/22 03:40:36;;;;;;;;;;;;;;;;;;5111665;28;828;-65
2022/06/22 03:43:22;;;;;;;;;;;;;;;;;;5112356;28;816;-65
2022/06/22 03:46:00;;;;;;;;;;;;;;;;;;5111887;28;915;-65
2022/06/22 03:48:30;;;;;;;;;;;;;;;;;;5112526;28;1053;-65
2022/06/22 03:50:55;;;;;;;;;;;;;;;;;;5112158;28;899;-65
2022/06/22 03:53:20;;;;;;;;;;;;;;;;;;5112712;28;1045;-65
2022/06/22 03:55:49;;;;;;;;;;;;;;;;;;5112180;28;1945;-65
2022/06/22 03:58:14;;;;;;;;;;;;;;;;;;5112442;28;817;-65
2022/06/22 04:00:42;;;;;;;;;;;;;;;;;;5111753;28;824;-65
2022/06/22 04:03:08;;;;;;;;;;;;;;;;;;5117438;28;860;-65
2022/06/22 04:05:40;;;;;;;;;;;;;;;;;;5115691;28;939;-65
2022/06/22 04:08:05;;;;;;;;;;;;;;;;;;5110930;28;888;-65
2022/06/22 04:10:40;;;;;;;;;;;;;;;;;;5110488;28;849;-66
2022/06/22 04:13:23;;;;;;;;;;;;;;;;;;5110901;28;861;-65
2022/06/22 04:15:51;;;;;;;;;;;;;;;;;;5114500;28;1897;-65
2022/06/22 04:18:20;;;;;;;;;;;;;;;;;;5112924;28;1236;-65
2022/06/22 04:20:51;;;;;;;;;;;;;;;;;;5112853;28;2156;-66
2022/06/22 04:23:29;;;;;;;;;;;;;;;;;;5113084;28;1297;-66
2022/06/22 04:26:00;;;;;;;;;;;;;;;;;;5112715;28;1278;-66
2022/06/22 04:28:27;;;;;;;;;;;;;;;;;;5114490;28;890;-65
2022/06/22 04:30:54;;;;;;;;;;;;;;;;;;5113784;28;1836;-65
2022/06/22 04:33:38;;;;;;;;;;;;;;;;;;5114571;28;860;-66
2022/06/22 04:36:27;;;;;;;;;;;;;;;;;;5113591;28;1905;-65
2022/06/22 04:39:01;;;;;;;;;;;;;;;;;;5113696;28;966;-66
2022/06/22 04:41:30;;;;;;;;;;;;;;;;;;5114492;28;986;-66
2022/06/22 04:43:56;;;;;;;;;;;;;;;;;;5114126;28;884;-67
2022/06/22 04:46:32;;;;;;;;;;;;;;;;;;5125138;27;1190;-66
2022/06/22 04:49:01;;;;;;;;;;;;;;;;;;5117733;27;1237;-66
2022/06/22 04:51:29;;;;;;;;;;;;;;;;;;5120584;27;1123;-65
2022/06/22 04:53:56;;;;;;;;;;;;;;;;;;5113583;28;1945;-66
2022/06/22 04:56:33;;;;;;;;;;;;;;;;;;5114403;28;837;-66
2022/06/22 04:58:59;;;;;;;;;;;;;;;;;;5114013;28;875;-66
2022/06/22 05:01:26;;;;;;;;;;;;;;;;;;5113119;28;1197;-64
2022/06/22 05:03:55;;;;;;;;;;;;;;;;;;5113523;28;958;-64
2022/06/22 05:06:24;;;;;;;;;;;;;;;;;;5114304;28;955;-66
2022/06/22 05:09:09;;;;;;;;;;;;;;;;;;5112390;28;1288;-66
2022/06/22 05:11:40;;;;;;;;;;;;;;;;;;5112119;28;1228;-66
2022/06/22 05:14:13;;;;;;;;;;;;;;;;;;5113338;28;1949;-65
2022/06/22 05:16:38;;;;;;;;;;;;;;;;;;5114105;28;852;-66
2022/06/22 05:19:04;;;;;;;;;;;;;;;;;;5111816;28;792;-66
2022/06/22 05:21:37;;;;;;;;;;;;;;;;;;5113410;28;735;-66
2022/06/22 05:24:23;;;;;;;;;;;;;;;;;;5111301;28;1221;-66
2022/06/22 05:26:50;;;;;;;;;;;;;;;;;;5100574;28;1261;-66
2022/06/22 05:29:18;;;;;;;;;;;;;;;;;;5111586;28;1257;-65
2022/06/22 05:31:46;;;;;;;;;;;;;;;;;;5113104;28;1076;-65
2022/06/22 05:34:14;;;;;;;;;;;;;;;;;;5112483;28;1898;-65
2022/06/22 05:36:43;;;;;;;;;;;;;;;;;;5113173;28;974;-65
2022/06/22 05:39:08;;;;;;;;;;;;;;;;;;5113013;28;891;-65
2022/06/22 05:41:37;;;;;;;;;;;;;;;;;;5094575;28;1226;-65
2022/06/22 05:44:06;;;;;;;;;;;;;;;;;;5112319;28;832;-64
2022/06/22 05:46:32;;;;;;;;;;;;;;;;;;5113279;28;1053;-65
2022/06/22 05:48:58;;;;;;;;;;;;;;;;;;5112956;28;785;-65
2022/06/22 05:51:48;;;;;;;;;;;;;;;;;;5112970;27;942;-66
2022/06/22 05:54:17;;;;;;;;;;;;;;;;;;5112115;28;1910;-65
2022/06/22 05:56:45;;;;;;;;;;;;;;;;;;5113056;28;888;-66
2022/06/22 05:59:21;;;;;;;;;;;;;;;;;;5112417;28;742;-65
2022/06/22 06:01:59;;;;;;;;;;;;;;;;;;5111354;28;1380;-65
2022/06/22 06:04:38;;;;;;;;;;;;;;;;;;5112871;28;1069;-64
2022/06/22 06:07:22;;;;;;;;;;;;;;;;;;5111760;28;950;-64
2022/06/22 06:09:47;;;;;;;;;;;;;;;;;;5112836;28;994;-65
2022/06/22 06:12:20;;;;;;;;;;;;;;;;;;5112202;28;908;-64
2022/06/22 06:14:46;;;;;;;;;;;;;;;;;;5113109;28;1905;-65
2022/06/22 06:17:15;;;;;;;;;;;;;;;;;;5112133;28;848;-64
2022/06/22 06:19:43;;;;;;;;;;;;;;;;;;5111371;28;1142;-63
2022/06/22 06:22:10;;;;;;;;;;;;;;;;;;5112480;28;1021;-64
2022/06/22 06:27:38;;;;;;;;;;;;;;;;;;5113130;28;1057;-65
2022/06/22 06:30:10;;;;;;;;;;;;;;;;;;5112508;28;836;-64
2022/06/22 06:32:43;;;;;;;;;;;;;;;;;;5112990;28;1238;-64
2022/06/22 06:35:15;;;;;;;;;;;;;;;;;;5112531;28;1979;-64
2022/06/22 06:37:58;;;;;;;;;;;;;;;;;;5112813;28;903;-64
2022/06/22 06:40:34;;;;;;;;;;;;;;;;;;5112633;28;931;-64
2022/06/22 06:43:19;;;;;;;;;;;;;;;;;;5111888;28;1010;-64
2022/06/22 06:45:45;;;;;;;;;;;;;;;;;;5090394;27;1698;-64
2022/06/22 06:48:15;;;;;;;;;;;;;;;;;;5112747;28;824;-64
2022/06/22 06:50:45;;;;;;;;;;;;;;;;;;5112327;28;821;-64
2022/06/22 06:53:34;;;;;;;;;;;;;;;;;;5111560;28;863;-64
2022/06/22 06:56:02;;;;;;;;;;;;;;;;;;5109858;28;1929;-64
2022/06/22 06:58:30;;;;;;;;;;;;;;;;;;5111488;28;777;-64
2022/06/22 07:00:55;;;;;;;;;;;;;;;;;;5111743;28;883;-64
2022/06/22 07:03:24;;;;;;;;;;;;;;;;;;5111958;28;943;-64
2022/06/22 07:05:50;;;;;;;;;;;;;;;;;;5121448;27;2191;-64
2022/06/22 07:08:15;;;;;;;;;;;;;;;;;;5113213;27;1174;-65
2022/06/22 07:10:43;;;;;;;;;;;;;;;;;;5110421;28;1036;-65
2022/06/22 07:13:16;;;;;;;;;;;;;;;;;;5111588;28;836;-66
2022/06/22 07:15:43;;;;;;;;;;;;;;;;;;5112123;28;1894;-65
2022/06/22 07:18:17;;;;;;;;;;;;;;;;;;5111842;28;1029;-65
2022/06/22 07:20:45;;;;;;;;;;;;;;;;;;5111301;28;800;-64
2022/06/22 07:23:30;;;;;;;;;;;;;;;;;;5111413;28;840;-65
2022/06/22 07:25:59;;;;;;;;;;;;;;;;;;5111255;28;1139;-64
2022/06/22 07:28:25;;;;;;;;;;;;;;;;;;5116584;27;1245;-65
2022/06/22 07:30:53;;;;;;;;;;;;;;;;;;5110573;27;1120;-63
2022/06/22 07:33:24;;;;;;;;;;;;;;;;;;5108214;28;1243;-64
2022/06/22 07:35:55;;;;;;;;;;;;;;;;;;5124513;27;1913;-64
2022/06/22 07:38:42;;;;;;;;;;;;;;;;;;5116602;27;1201;-64
2022/06/22 07:41:19;;;;;;;;;;;;;;;;;;5124181;27;1222;-64
2022/06/22 07:44:05;;;;;;;;;;;;;;;;;;5130332;27;844;-64
2022/06/22 07:46:36;;;;;;;;;;;;;;;;;;5131768;27;855;-64
2022/06/22 07:49:22;;;;;;;;;;;;;;;;;;5131238;27;962;-64
2022/06/22 07:51:52;;;;;;;;;;;;;;;;;;5130828;27;1093;-64
2022/06/22 07:54:33;;;;;;;;;;;;;;;;;;5130842;27;1945;-64
2022/06/22 07:57:05;;;;;;;;;;;;;;;;;;5131664;27;847;-64
2022/06/22 07:59:43;;;;;;;;;;;;;;;;;;5132549;27;978;-65
2022/06/22 08:02:16;;;;;;;;;;;;;;;;;;5132146;27;849;-64
2022/06/22 08:04:47;;;;;;;;;;;;;;;;;;5132449;27;957;-64
2022/06/22 08:07:16;;;;;;;;;;;;;;;;;;5132330;27;907;-64
2022/06/22 08:09:57;;;;;;;;;;;;;;;;;;5132263;27;931;-64
2022/06/22 08:12:30;;;;;;;;;;;;;;;;;;5131907;27;844;-65
2022/06/22 08:14:55;;;;;;;;;;;;;;;;;;5131086;27;1949;-64
2022/06/22 08:17:21;;;;;;;;;;;;;;;;;;5131859;27;982;-64
2022/06/22 08:19:46;;;;;;;;;;;;;;;;;;5130502;28;1535;-65
2022/06/22 08:22:12;;;;;;;;;;;;;;;;;;5131531;27;828;-64
2022/06/22 08:24:40;;;;;;;;;;;;;;;;;;5164972;27;1141;-65
2022/06/22 08:27:08;;;;;;;;;;;;;;;;;;5131219;27;891;-64
2022/06/22 08:29:34;;;;;;;;;;;;;;;;;;5131725;27;907;-64
2022/06/22 08:32:09;;;;;;;;;;;;;;;;;;5131282;27;1096;-64
2022/06/22 08:34:38;;;;;;;;;;;;;;;;;;5131661;27;1902;-64
2022/06/22 08:37:10;;;;;;;;;;;;;;;;;;5129530;27;1340;-64
2022/06/22 08:39:41;;;;;;;;;;;;;;;;;;5131834;27;789;-64
2022/06/22 08:42:07;;;;;;;;;;;;;;;;;;5129875;28;1197;-64
2022/06/22 08:44:38;;;;;;;;;;;;;;;;;;5131186;27;828;-65
2022/06/22 08:47:32;;;;;;;;;;;;;;;;;;5130963;28;821;-65
2022/06/22 08:50:09;;;;;;;;;;;;;;;;;;5074489;27;1132;-65
2022/06/22 08:52:44;;;;;;;;;;;;;;;;;;5130648;27;962;-64
2022/06/22 08:55:09;;;;;;;;;;;;;;;;;;5130945;27;1939;-65
2022/06/22 08:57:43;;;;;;;;;;;;;;;;;;5131440;28;833;-64
2022/06/22 09:00:27;;;;;;;;;;;;;;;;;;5129721;27;1459;-64
2022/06/22 09:03:06;;;;;;;;;;;;;;;;;;5134733;27;855;-64
2022/06/22 09:05:44;;;;;;;;;;;;;;;;;;5134241;27;835;-64
2022/06/22 09:08:27;;;;;;;;;;;;;;;;;;5133903;27;1058;-64
2022/06/22 09:11:08;;;;;;;;;;;;;;;;;;5133999;27;923;-64
2022/06/22 09:13:33;;;;;;;;;;;;;;;;;;5132437;27;1443;-64
2022/06/22 09:16:10;;;;;;;;;;;;;;;;;;5133274;27;1956;-64
2022/06/22 09:18:36;;;;;;;;;;;;;;;;;;5132552;27;836;-64
2022/06/22 09:21:10;;;;;;;;;;;;;;;;;;5133947;27;827;-64
2022/06/22 09:23:40;;;;;;;;;;;;;;;;;;5132257;27;1161;-65
2022/06/22 09:26:13;;;;;;;;;;;;;;;;;;5133162;27;919;-65
2022/06/22 09:28:44;;;;;;;;;;;;;;;;;;5133913;27;999;-65
2022/06/22 09:31:19;;;;;;;;;;;;;;;;;;5132392;27;1454;-65
2022/06/22 09:33:47;;;;;;;;;;;;;;;;;;5132457;27;1339;-64
2022/06/22 09:36:18;;;;;;;;;;;;;;;;;;5133591;27;1914;-65
2022/06/22 09:38:46;;;;;;;;;;;;;;;;;;5133817;27;864;-64
2022/06/22 09:41:20;;;;;;;;;;;;;;;;;;5133434;27;943;-64
2022/06/22 09:44:01;;;;;;;;;;;;;;;;;;5134899;27;973;-65
2022/06/22 09:46:30;;;;;;;;;;;;;;;;;;5134903;27;975;-65
2022/06/22 09:48:55;;;;;;;;;;;;;;;;;;5137569;27;773;-65
2022/06/22 09:51:23;;;;;;;;;;;;;;;;;;5136681;27;971;-65
2022/06/22 09:53:51;;;;;;;;;;;;;;;;;;5134720;27;911;-65
2022/06/22 09:56:25;;;;;;;;;;;;;;;;;;5133883;27;1905;-65
2022/06/22 09:59:09;;;;;;;;;;;;;;;;;;5133558;27;1360;-65
2022/06/22 10:01:53;;;;;;;;;;;;;;;;;;5134643;27;753;-65
2022/06/22 10:04:37;;;;;;;;;;;;;;;;;;5133977;27;1375;-65
2022/06/22 10:07:15;;;;;;;;;;;;;;;;;;5134747;27;793;-65
2022/06/22 10:10:01;;;;;;;;;;;;;;;;;;5135080;27;883;-65
2022/06/22 10:12:46;;;;;;;;;;;;;;;;;;5134333;27;859;-65
2022/06/22 10:15:22;;;;;;;;;;;;;;;;;;5133286;27;1902;-65
2022/06/22 10:17:53;;;;;;;;;;;;;;;;;;5133531;27;809;-65
2022/06/22 10:20:37;;;;;;;;;;;;;;;;;;5132223;27;1305;-65
2022/06/22 10:23:15;;;;;;;;;;;;;;;;;;5132640;27;1034;-65
2022/06/22 10:25:48;;;;;;;;;;;;;;;;;;5132808;27;883;-65
2022/06/22 10:28:28;;;;;;;;;;;;;;;;;;5132728;27;903;-65
2022/06/22 10:31:01;;;;;;;;;;;;;;;;;;5132432;27;1191;-65
2022/06/22 10:33:58;;;;;;;;;;;;;;;;;;5132400;27;824;-65
2022/06/22 10:36:33;;;;;;;;;;;;;;;;;;5097342;27;1280;-65
2022/06/22 10:39:16;;;;;;;;;;;;;;;;;;5132493;27;781;-65
2022/06/22 10:47:31;;;;;;;;;;;;;;;;;;5132559;27;643;-65
2022/06/22 10:50:05;;;;;;;;;;;;;;;;;;5130846;27;1370;-65
2022/06/22 10:53:06;;;;;;;;;;;;;;;;;;5132347;27;769;-65
2022/06/22 10:55:49;;;;;;;;;;;;;;;;;;5068162;28;1965;-65
2022/06/22 10:58:30;;;;;;;;;;;;;;;;;;5126542;27;1090;-65
2022/06/22 11:01:14;;;;;;;;;;;;;;;;;;5130356;27;1253;-65
2022/06/22 11:03:42;;;;;;;;;;;;;;;;;;5130868;27;1173;-65
2022/06/22 11:06:37;;;;;;;;;;;;;;;;;;5132223;27;828;-65
2022/06/22 11:09:07;;;;;;;;;;;;;;;;;;5058872;27;1446;-65
2022/06/22 11:11:51;;;;;;;;;;;;;;;;;;5131971;27;855;-65
2022/06/22 11:14:19;;;;;;;;;;;;;;;;;;5131626;27;1941;-65
2022/06/22 11:16:50;;;;;;;;;;;;;;;;;;5131965;27;970;-65
2022/06/22 11:19:34;;;;;;;;;;;;;;;;;;5131816;27;824;-65
2022/06/22 11:22:18;;;;;;;;;;;;;;;;;;5130225;27;1225;-65
2022/06/22 11:24:49;;;;;;;;;;;;;;;;;;5130051;27;1225;-65
2022/06/22 11:30:59;;;;;;;;;;;;;;;;;;5131882;27;661;-66
2022/06/22 11:33:29;;;;;;;;;;;;;;;;;;5128420;27;1353;-66
2022/06/22 11:36:14;;;;;;;;;;;;;;;;;;5130575;27;2009;-66
2022/06/22 11:38:39;;;;;;;;;;;;;;;;;;5132178;27;844;-65
2022/06/22 11:41:11;;;;;;;;;;;;;;;;;;5132775;27;919;-66
2022/06/22 11:43:50;;;;;;;;;;;;;;;;;;5130890;27;1416;-66
2022/06/22 11:46:15;;;;;;;;;;;;;;;;;;5132566;27;785;-66
2022/06/22 11:48:59;;;;;;;;;;;;;;;;;;5132393;28;883;-66
2022/06/22 11:51:37;;;;;;;;;;;;;;;;;;5132574;27;970;-65
2022/06/22 11:54:03;;;;;;;;;;;;;;;;;;5131266;27;1905;-66
2022/06/22 11:56:43;;;;;;;;;;;;;;;;;;5132216;27;851;-66
2022/06/22 11:59:27;;;;;;;;;;;;;;;;;;5130118;28;1201;-64
2022/06/22 12:01:58;;;;;;;;;;;;;;;;;;5131321;27;781;-66
2022/06/22 12:04:42;;;;;;;;;;;;;;;;;;5131242;27;820;-65
2022/06/22 12:07:26;;;;;;;;;;;;;;;;;;5130978;27;784;-63
2022/06/22 12:09:51;;;;;;;;;;;;;;;;;;5131130;27;955;-65
2022/06/22 12:12:20;;;;;;;;;;;;;;;;;;5130853;27;876;-63
2022/06/22 12:15:09;;;;;;;;;;;;;;;;;;5130962;27;1956;-65
2022/06/22 12:17:34;;;;;;;;;;;;;;;;;;5131258;27;859;-65
2022/06/22 12:20:05;;;;;;;;;;;;;;;;;;5129510;27;1280;-65
2022/06/22 12:22:30;;;;;;;;;;;;;;;;;;5131959;27;908;-66
2022/06/22 12:24:56;;;;;;;;;;;;;;;;;;5130410;28;927;-65
2022/06/22 12:27:26;;;;;;;;;;;;;;;;;;5131275;28;891;-65
2022/06/22 12:30:05;;;;;;;;;;;;;;;;;;5131210;27;757;-65
2022/06/22 12:32:43;;;;;;;;;;;;;;;;;;5131298;27;1207;-66
2022/06/22 12:35:16;;;;;;;;;;;;;;;;;;5133046;27;1901;-65
2022/06/22 12:37:56;;;;;;;;;;;;;;;;;;5134784;27;765;-65
2022/06/22 12:40:24;;;;;;;;;;;;;;;;;;5133593;27;1197;-66
2022/06/22 12:43:09;;;;;;;;;;;;;;;;;;5134589;27;863;-66
2022/06/22 12:45:40;;;;;;;;;;;;;;;;;;5134857;27;987;-65
2022/06/22 12:48:24;;;;;;;;;;;;;;;;;;5134737;27;863;-65
2022/06/22 12:51:04;;;;;;;;;;;;;;;;;;5134988;27;819;-65
2022/06/22 12:53:29;;;;;;;;;;;;;;;;;;5135198;27;1259;-65
2022/06/22 12:55:59;;;;;;;;;;;;;;;;;;5134269;27;1898;-65
2022/06/22 12:58:27;;;;;;;;;;;;;;;;;;5135257;27;886;-66
2022/06/22 13:00:55;;;;;;;;;;;;;;;;;;5134532;27;827;-66
2022/06/22 13:03:22;;;;;;;;;;;;;;;;;;5134874;27;769;-66
2022/06/22 13:05:48;;;;;;;;;;;;;;;;;;5134921;27;840;-65
2022/06/22 13:08:20;;;;;;;;;;;;;;;;;;5135560;27;887;-65
2022/06/22 13:10:47;;;;;;;;;;;;;;;;;;5135359;27;820;-66
2022/06/22 13:13:23;;;;;;;;;;;;;;;;;;5133438;27;1173;-66
2022/06/22 13:15:56;;;;;;;;;;;;;;;;;;5134918;27;1905;-65
2022/06/22 13:18:42;;;;;;;;;;;;;;;;;;5135479;27;882;-66
2022/06/22 13:21:17;;;;;;;;;;;;;;;;;;5133226;27;1229;-66
2022/06/22 13:23:51;;;;;;;;;;;;;;;;;;5135185;27;931;-65
2022/06/22 13:26:41;;;;;;;;;;;;;;;;;;5133807;27;922;-66
2022/06/22 13:29:25;;;;;;;;;;;;;;;;;;5132633;27;1292;-65
2022/06/22 13:31:53;;;;;;;;;;;;;;;;;;5134038;27;1300;-66
2022/06/22 13:34:21;;;;;;;;;;;;;;;;;;5134509;27;1973;-66
2022/06/22 13:36:51;;;;;;;;;;;;;;;;;;5133818;27;844;-65
2022/06/22 13:39:25;;;;;;;;;;;;;;;;;;5134046;27;900;-65
2022/06/22 13:41:53;;;;;;;;;;;;;;;;;;5133783;27;879;-65
2022/06/22 13:44:22;;;;;;;;;;;;;;;;;;5132516;27;1613;-66
2022/06/22 13:47:02;;;;;;;;;;;;;;;;;;5133218;27;988;-65
2022/06/22 13:49:52;;;;;;;;;;;;;;;;;;5134301;27;908;-66
2022/06/22 13:52:43;;;;;;;;;;;;;;;;;;5133222;27;942;-65
2022/06/22 13:55:15;;;;;;;;;;;;;;;;;;5130045;27;1962;-65
2022/06/22 13:57:40;;;;;;;;;;;;;;;;;;5133818;27;845;-65
2022/06/22 14:00:14;;;;;;;;;;;;;;;;;;5132974;27;856;-65
2022/06/22 14:02:39;;;;;;;;;;;;;;;;;;5133422;27;939;-65
2022/06/22 14:05:25;;;;;;;;;;;;;;;;;;5131769;27;1348;-65
2022/06/22 14:08:08;;;;;;;;;;;;;;;;;;5133313;27;863;-65
2022/06/22 14:10:39;;;;;;;;;;;;;;;;;;5133517;27;912;-65
2022/06/22 14:13:25;;;;;;;;;;;;;;;;;;5131645;27;1136;-65
2022/06/22 14:16:00;;;;;;;;;;;;;;;;;;5133165;27;1909;-65
2022/06/22 14:18:30;;;;;;;;;;;;;;;;;;5133681;27;895;-65
2022/06/22 14:21:09;;;;;;;;;;;;;;;;;;5132849;27;856;-65
2022/06/22 14:23:37;;;;;;;;;;;;;;;;;;5133866;27;895;-65
2022/06/22 14:26:05;;;;;;;;;;;;;;;;;;5132830;27;872;-65
2022/06/22 14:28:30;;;;;;;;;;;;;;;;;;5133431;27;1019;-65
2022/06/22 14:31:00;;;;;;;;;;;;;;;;;;5132671;27;1286;-65
2022/06/22 14:33:26;;;;;;;;;;;;;;;;;;5133332;27;812;-65
2022/06/22 14:36:24;;;;;;;;;;;;;;;;;;5132501;27;1913;-65
2022/06/22 14:39:12;;;;;;;;;;;;;;;;;;5098201;27;1428;-65
2022/06/22 14:41:41;;;;;;;;;;;;;;;;;;5133433;27;1037;-65
2022/06/22 14:44:09;;;;;;;;;;;;;;;;;;5131358;27;1252;-64
2022/06/22 14:46:37;;;;;;;;;;;;;;;;;;5133036;27;1057;-65
2022/06/22 14:49:02;;;;;;;;;;;;;;;;;;5132587;27;910;-65
2022/06/22 14:52:06;;;;;;;;;;;;;;;;;;5132738;27;851;-65
2022/06/22 14:54:31;;;;;;;;;;;;;;;;;;5068987;28;1894;-64
2022/06/22 14:57:09;;;;;;;;;;;;;;;;;;5052276;28;893;-65
2022/06/22 14:59:40;;;;;;;;;;;;;;;;;;5104105;27;1038;-65
2022/06/22 15:02:08;;;;;;;;;;;;;;;;;;5132592;27;891;-65
2022/06/22 15:04:36;;;;;;;;;;;;;;;;;;5133275;27;796;-65
2022/06/22 15:07:14;;;;;;;;;;;;;;;;;;5129871;27;1222;-65
2022/06/22 15:09:56;;;;;;;;;;;;;;;;;;5133413;27;768;-65
2022/06/22 15:15:11;;;;;;;;;;;;;;;;;;5131705;27;1973;-64
2022/06/22 15:17:43;;;;;;;;;;;;;;;;;;5114207;27;1170;-64
2022/06/22 15:20:25;;;;;;;;;;;;;;;;;;5111253;28;892;-64
2022/06/22 15:22:54;;;;;;;;;;;;;;;;;;5113267;28;1230;-64
2022/06/22 15:25:42;;;;;;;;;;;;;;;;;;5129045;27;1194;-63
2022/06/22 15:28:14;;;;;;;;;;;;;;;;;;5120110;27;1217;-64
2022/06/22 15:30:45;;;;;;;;;;;;;;;;;;5117155;27;1263;-64
2022/06/22 15:33:14;;;;;;;;;;;;;;;;;;5110466;27;1146;-65
2022/06/22 15:35:48;;;;;;;;;;;;;;;;;;5117466;27;1967;-65
2022/06/22 15:38:37;;;;;;;;;;;;;;;;;;5130765;27;1142;-64
2022/06/22 15:41:02;;;;;;;;;;;;;;;;;;5129983;27;1222;-65
2022/06/22 15:43:46;;;;;;;;;;;;;;;;;;5132908;27;816;-64
2022/06/22 15:46:21;;;;;;;;;;;;;;;;;;5131975;27;1076;-65
2022/06/22 15:48:46;;;;;;;;;;;;;;;;;;5133039;27;1171;-64
2022/06/22 15:51:32;;;;;;;;;;;;;;;;;;5132074;27;1030;-64
2022/06/22 15:54:00;;;;;;;;;;;;;;;;;;5130350;27;1287;-63
2022/06/22 15:56:35;;;;;;;;;;;;;;;;;;5130450;28;1975;-64
2022/06/22 15:59:04;;;;;;;;;;;;;;;;;;5131937;27;993;-65
2022/06/22 16:01:29;;;;;;;;;;;;;;;;;;5132495;27;851;-65
2022/06/22 16:03:59;;;;;;;;;;;;;;;;;;5133078;28;895;-64
2022/06/22 16:06:38;;;;;;;;;;;;;;;;;;5130710;27;1674;-65
2022/06/22 16:09:08;;;;;;;;;;;;;;;;;;5132044;27;891;-64
2022/06/22 16:14:30;;;;;;;;;;;;;;;;;;5142454;27;1955;-64
2022/06/22 16:16:56;;;;;;;;;;;;;;;;;;5141146;27;907;-65
2022/06/22 16:19:34;;;;;;;;;;;;;;;;;;5137702;27;990;-64
2022/06/22 16:21:59;;;;;;;;;;;;;;;;;;5135572;27;1306;-65
2022/06/22 16:24:28;;;;;;;;;;;;;;;;;;5136556;27;899;-64
2022/06/22 16:27:00;;;;;;;;;;;;;;;;;;5135923;27;1035;-65
2022/06/22 16:29:29;;;;;;;;;;;;;;;;;;5135571;27;2082;-64
2022/06/22 16:32:04;;;;;;;;;;;;;;;;;;5135001;27;1105;-64
2022/06/22 16:34:34;;;;;;;;;;;;;;;;;;5135723;27;1910;-64
2022/06/22 16:37:18;;;;;;;;;;;;;;;;;;5135537;27;843;-64
2022/06/22 16:39:52;;;;;;;;;;;;;;;;;;5136138;27;835;-64
2022/06/22 16:42:23;;;;;;;;;;;;;;;;;;5135898;27;895;-64
2022/06/22 16:45:07;;;;;;;;;;;;;;;;;;5135695;27;891;-64
2022/06/22 16:47:46;;;;;;;;;;;;;;;;;;5136315;27;840;-64
2022/06/22 16:50:14;;;;;;;;;;;;;;;;;;5135391;27;852;-64
2022/06/22 16:52:42;;;;;;;;;;;;;;;;;;5135934;27;887;-64
2022/06/22 16:55:26;;;;;;;;;;;;;;;;;;5134992;27;1894;-64
2022/06/22 16:57:53;;;;;;;;;;;;;;;;;;5135432;27;997;-64
2022/06/22 17:00:49;;;;;;;;;;;;;;;;;;5134889;27;978;-64
2022/06/22 17:03:19;;;;;;;;;;;;;;;;;;5134681;27;946;-64
2022/06/22 17:05:48;;;;;;;;;;;;;;;;;;5135094;27;970;-64
2022/06/22 17:08:21;;;;;;;;;;;;;;;;;;5134643;27;911;-64
2022/06/22 17:10:46;;;;;;;;;;;;;;;;;;5134774;27;828;-64
2022/06/22 17:13:15;;;;;;;;;;;;;;;;;;5134196;27;891;-64
2022/06/22 17:15:59;;;;;;;;;;;;;;;;;;5135308;27;1969;-64
2022/06/22 17:18:24;;;;;;;;;;;;;;;;;;5133286;27;986;-64
2022/06/22 17:20:52;;;;;;;;;;;;;;;;;;5133591;27;907;-64
2022/06/22 17:23:34;;;;;;;;;;;;;;;;;;5132647;27;770;-64
2022/06/22 17:26:07;;;;;;;;;;;;;;;;;;5134388;27;903;-64
2022/06/22 17:28:35;;;;;;;;;;;;;;;;;;5134015;27;975;-64
2022/06/22 17:31:00;;;;;;;;;;;;;;;;;;5133748;27;1107;-64
2022/06/22 17:33:28;;;;;;;;;;;;;;;;;;5134346;27;1144;-64
2022/06/22 17:36:03;;;;;;;;;;;;;;;;;;5134477;27;1922;-64
2022/06/22 17:38:28;;;;;;;;;;;;;;;;;;5134150;27;892;-64
2022/06/22 17:41:03;;;;;;;;;;;;;;;;;;5134316;27;941;-64
2022/06/22 17:43:47;;;;;;;;;;;;;;;;;;5134440;27;896;-64
2022/06/22 17:46:20;;;;;;;;;;;;;;;;;;5133813;27;914;-64
2022/06/22 17:48:59;;;;;;;;;;;;;;;;;;5134538;27;946;-65
2022/06/22 17:51:30;;;;;;;;;;;;;;;;;;5132657;27;1646;-64
2022/06/22 17:53:59;;;;;;;;;;;;;;;;;;5134378;27;971;-64
2022/06/22 17:56:26;;;;;;;;;;;;;;;;;;5134302;27;1969;-64
2022/06/22 17:58:59;;;;;;;;;;;;;;;;;;5132574;27;856;-65
2022/06/22 18:01:37;;;;;;;;;;;;;;;;;;5130753;27;1186;-64
2022/06/22 18:04:08;;;;;;;;;;;;;;;;;;5115319;27;1309;-64
2022/06/22 18:06:39;;;;;;;;;;;;;;;;;;5113218;27;1202;-64
2022/06/22 18:09:24;;;;;;;;;;;;;;;;;;5117932;27;1155;-63
2022/06/22 18:11:51;;;;;;;;;;;;;;;;;;5126761;27;1530;-64
2022/06/22 18:14:16;;;;;;;;;;;;;;;;;;5120968;27;1206;-64
2022/06/22 18:16:47;;;;;;;;;;;;;;;;;;5119626;27;1890;-64